createdAt,value
2022-08-30T00:00:39.984Z,102307.75
2022-08-30T00:03:16.325Z,102299.78
2022-08-30T00:05:52.080Z,102303.28
2022-08-30T00:08:31.962Z,102306.22
2022-08-30T00:10:58.592Z,102304.97
2022-08-30T00:13:25.029Z,102309.50
2022-08-30T00:15:58.022Z,102311.97
2022-08-30T00:18:24.603Z,102304.97
2022-08-30T00:20:57.949Z,102304.28
2022-08-30T00:23:24.421Z,102308.69
2022-08-30T00:25:57.954Z,102300.03
2022-08-30T00:28:24.391Z,102310.50
2022-08-30T00:30:51.596Z,102302.84
2022-08-30T00:33:24.971Z,102309.03
2022-08-30T00:35:51.394Z,102303.97
2022-08-30T00:38:25.958Z,102298.41
2022-08-30T00:40:52.918Z,102302.66
2022-08-30T00:43:33.959Z,102293.81
2022-08-30T00:46:04.665Z,102289.59
2022-08-30T00:48:33.347Z,102291.19
2022-08-30T00:51:09.937Z,102293.00
2022-08-30T00:53:42.065Z,102297.28
2022-08-30T00:56:16.917Z,102305.94
2022-08-30T00:58:55.953Z,102302.34
2022-08-30T01:01:23.347Z,102303.31
2022-08-30T01:03:57.930Z,102298.22
2022-08-30T01:06:26.059Z,102315.75
2022-08-30T01:09:07.922Z,102303.31
2022-08-30T01:11:37.368Z,102309.22
2022-08-30T01:14:06.373Z,102304.94
2022-08-30T01:16:40.951Z,102306.47
2022-08-30T01:19:21.435Z,102303.72
2022-08-30T01:22:03.918Z,102309.78
2022-08-30T01:24:31.425Z,102306.69
2022-08-30T01:26:58.193Z,102302.44
2022-08-30T01:29:31.920Z,102306.06
2022-08-30T01:31:58.300Z,102304.41
2022-08-30T01:34:31.942Z,102305.09
2022-08-30T01:36:58.317Z,102306.78
2022-08-30T01:39:31.929Z,102308.09
2022-08-30T01:41:58.551Z,102311.69
2022-08-30T01:44:31.933Z,102308.75
2022-08-30T01:46:58.622Z,102316.94
2022-08-30T01:49:27.565Z,102318.91
2022-08-30T01:52:01.934Z,102312.25
2022-08-30T01:54:37.018Z,102320.06
2022-08-30T01:57:13.943Z,102319.06
2022-08-30T01:59:49.910Z,102323.50
2022-08-30T02:02:26.893Z,102321.03
2022-08-30T02:04:54.383Z,102317.78
2022-08-30T02:07:33.889Z,102311.09
2022-08-30T02:10:00.437Z,102319.09
2022-08-30T02:12:33.928Z,102317.66
2022-08-30T02:15:07.974Z,102316.03
2022-08-30T02:17:41.942Z,102320.78
2022-08-30T02:20:09.543Z,102315.72
2022-08-30T02:22:36.052Z,102315.88
2022-08-30T02:25:11.222Z,102308.22
2022-08-30T02:27:47.503Z,102309.34
2022-08-30T02:30:21.038Z,102304.97
2022-08-30T02:32:47.490Z,102311.31
2022-08-30T02:35:20.889Z,102314.09
2022-08-30T02:37:47.281Z,102311.81
2022-08-30T02:40:19.969Z,102313.94
2022-08-30T02:42:49.503Z,102311.50
2022-08-30T02:45:16.284Z,102309.06
2022-08-30T02:47:51.902Z,102311.84
2022-08-30T02:50:18.584Z,102307.94
2022-08-30T02:52:51.907Z,102311.53
2022-08-30T02:55:20.877Z,102304.66
2022-08-30T02:57:53.978Z,102303.22
2022-08-30T03:00:21.261Z,102302.53
2022-08-30T03:02:47.832Z,102293.44
2022-08-30T03:05:21.911Z,102292.94
2022-08-30T03:07:48.483Z,102291.63
2022-08-30T03:10:16.333Z,102290.19
2022-08-30T03:12:49.942Z,102289.34
2022-08-30T03:15:27.111Z,102285.78
2022-08-30T03:18:01.936Z,102286.91
2022-08-30T03:20:29.042Z,102288.06
2022-08-30T03:23:01.911Z,102283.16
2022-08-30T03:25:35.897Z,102294.72
2022-08-30T03:28:02.510Z,102292.59
2022-08-30T03:30:35.928Z,102295.53
2022-08-30T03:33:09.891Z,102290.00
2022-08-30T03:35:37.868Z,102293.25
2022-08-30T03:38:04.355Z,102290.97
2022-08-30T03:40:37.986Z,102288.19
2022-08-30T03:43:04.895Z,102288.53
2022-08-30T03:45:38.949Z,102281.53
2022-08-30T03:48:05.674Z,102284.78
2022-08-30T03:50:39.884Z,102290.00
2022-08-30T03:53:06.478Z,102293.56
2022-08-30T03:55:39.929Z,102291.13
2022-08-30T03:58:06.362Z,102294.72
2022-08-30T04:00:39.935Z,102293.09
2022-08-30T04:03:06.498Z,102288.19
2022-08-30T04:05:32.885Z,102295.38
2022-08-30T04:08:05.896Z,102288.03
2022-08-30T04:10:38.899Z,102293.72
2022-08-30T04:13:11.864Z,102289.97
2022-08-30T04:15:38.254Z,102289.81
2022-08-30T04:18:10.897Z,102295.00
2022-08-30T04:20:37.939Z,102300.22
2022-08-30T04:23:13.891Z,102289.47
2022-08-30T04:25:47.878Z,102291.09
2022-08-30T04:28:21.892Z,102292.72
2022-08-30T04:30:48.697Z,102296.31
2022-08-30T04:33:16.789Z,102294.50
2022-08-30T04:35:52.887Z,102296.78
2022-08-30T04:38:22.611Z,102299.41
2022-08-30T04:40:56.903Z,102303.00
2022-08-30T04:43:31.890Z,102312.75
2022-08-30T04:45:58.350Z,102308.69
2022-08-30T04:48:31.900Z,102307.06
2022-08-30T04:51:04.896Z,102307.38
2022-08-30T04:53:37.914Z,102306.25
2022-08-30T04:56:18.876Z,102313.09
2022-08-30T04:58:53.868Z,102311.94
2022-08-30T05:01:23.884Z,102315.41
2022-08-30T05:03:58.872Z,102321.63
2022-08-30T05:06:41.879Z,102320.19
2022-08-30T05:09:08.280Z,102319.34
2022-08-30T05:11:40.868Z,102319.66
2022-08-30T05:14:13.874Z,102323.69
2022-08-30T05:16:41.655Z,102325.81
2022-08-30T05:19:14.902Z,102319.28
2022-08-30T05:21:41.451Z,102325.56
2022-08-30T05:24:14.895Z,102321.91
2022-08-30T05:26:41.356Z,102326.75
2022-08-30T05:29:14.003Z,102329.16
2022-08-30T05:31:40.687Z,102323.03
2022-08-30T05:34:07.207Z,102326.28
2022-08-30T05:36:41.928Z,102332.59
2022-08-30T05:39:10.428Z,102325.38
2022-08-30T05:41:38.476Z,102333.19
2022-08-30T05:44:13.851Z,102333.19
2022-08-30T05:46:45.558Z,102333.91
2022-08-30T05:49:19.858Z,102334.06
2022-08-30T05:51:46.268Z,102335.16
2022-08-30T05:54:20.870Z,102339.50
2022-08-30T05:56:53.980Z,102341.50
2022-08-30T05:59:27.870Z,102341.56
2022-08-30T06:01:58.060Z,102348.63
2022-08-30T06:04:24.622Z,102349.63
2022-08-30T06:06:57.883Z,102348.19
2022-08-30T06:09:24.275Z,102342.53
2022-08-30T06:11:57.867Z,102343.47
2022-08-30T06:14:31.850Z,102347.41
2022-08-30T06:17:04.884Z,102345.19
2022-08-30T06:19:31.271Z,102347.19
2022-08-30T06:21:57.819Z,102336.72
2022-08-30T06:24:54.003Z,102339.50
2022-08-30T06:27:24.861Z,102334.75
2022-08-30T06:29:59.881Z,102334.88
2022-08-30T06:32:33.850Z,102343.19
2022-08-30T06:35:08.865Z,102333.78
2022-08-30T06:37:35.338Z,102345.34
2022-08-30T06:40:03.315Z,102348.38
2022-08-30T06:42:39.863Z,102354.91
2022-08-30T06:45:10.423Z,102345.34
2022-08-30T06:47:38.254Z,102343.44
2022-08-30T06:50:12.190Z,102342.13
2022-08-30T06:52:43.282Z,102346.16
2022-08-30T06:55:19.851Z,102347.53
2022-08-30T06:57:53.924Z,102348.59
2022-08-30T07:00:27.851Z,102350.72
2022-08-30T07:03:02.139Z,102353.69
2022-08-30T07:05:28.633Z,102345.56
2022-08-30T07:08:01.851Z,102345.72
2022-08-30T07:10:34.867Z,102344.75
2022-08-30T07:13:01.444Z,102349.38
2022-08-30T07:15:27.846Z,102347.59
2022-08-30T07:18:21.884Z,102350.97
2022-08-30T07:20:48.309Z,102349.59
2022-08-30T07:23:20.871Z,102338.03
2022-08-30T07:25:47.453Z,102350.72
2022-08-30T07:28:21.854Z,102350.56
2022-08-30T07:30:48.473Z,102344.63
2022-08-30T07:33:21.858Z,102346.19
2022-08-30T07:35:48.227Z,102340.28
2022-08-30T07:38:14.975Z,102341.59
2022-08-30T07:40:47.910Z,102350.69
2022-08-30T07:43:14.346Z,102344.81
2022-08-30T07:45:47.852Z,102336.13
2022-08-30T07:48:14.257Z,102342.97
2022-08-30T07:50:57.054Z,102345.31
2022-08-30T07:53:25.134Z,102352.34
2022-08-30T07:55:57.874Z,102339.13
2022-08-30T07:58:39.842Z,102347.28
2022-08-30T08:01:16.003Z,102340.81
2022-08-30T08:03:43.343Z,102360.28
2022-08-30T08:06:12.223Z,102355.06
2022-08-30T08:08:46.987Z,102357.16
2022-08-30T08:11:17.083Z,102361.63
2022-08-30T08:13:53.535Z,102361.16
2022-08-30T08:16:29.868Z,102359.97
2022-08-30T08:18:57.223Z,102358.41
2022-08-30T08:21:24.819Z,102357.38
2022-08-30T08:24:05.863Z,102362.03
2022-08-30T08:26:45.320Z,102370.59
2022-08-30T08:29:12.101Z,102369.66
2022-08-30T08:31:38.669Z,102369.97
2022-08-30T08:34:11.870Z,102373.16
2022-08-30T08:36:38.340Z,102359.72
2022-08-30T08:39:13.843Z,102360.50
2022-08-30T08:42:04.753Z,102361.41
2022-08-30T08:44:59.842Z,102363.88
2022-08-30T08:47:43.863Z,102363.81
2022-08-30T08:50:23.849Z,102363.50
2022-08-30T08:53:36.177Z,102360.28
2022-08-30T08:56:19.848Z,102358.56
2022-08-30T08:58:56.520Z,102357.13
2022-08-30T09:01:33.927Z,102358.38
2022-08-30T09:04:08.038Z,102354.56
2022-08-30T09:06:51.846Z,102351.13
2022-08-30T09:09:27.533Z,102356.72
2022-08-30T09:12:01.866Z,102361.19
2022-08-30T09:14:34.705Z,102341.09
2022-08-30T09:17:11.838Z,102345.53
2022-08-30T09:19:40.351Z,102346.53
2022-08-30T09:22:18.846Z,102360.56
2022-08-30T09:24:48.572Z,102355.59
2022-08-30T09:27:32.869Z,102342.28
2022-08-30T09:30:14.756Z,102355.03
2022-08-30T09:32:52.543Z,102348.16
2022-08-30T09:35:30.852Z,102353.72
2022-08-30T09:38:05.534Z,102352.63
2022-08-30T09:40:45.960Z,102349.50
2022-08-30T09:46:19.920Z,102342.50
2022-08-30T09:48:47.329Z,102352.78
2022-08-30T09:51:49.831Z,102346.31
2022-08-30T09:54:24.643Z,102353.81
2022-08-30T09:57:34.399Z,102354.91
2022-08-30T10:00:13.472Z,102350.44
2022-08-30T10:03:35.342Z,102350.59
2022-08-30T10:06:27.919Z,102360.28
2022-08-30T10:09:03.838Z,102347.19
2022-08-30T10:11:50.869Z,102343.06
2022-08-30T10:14:26.200Z,102350.25
2022-08-30T10:17:29.847Z,102350.50
2022-08-30T10:20:27.860Z,102349.47
2022-08-30T10:23:09.232Z,102352.75
2022-08-30T10:25:47.860Z,102349.88
2022-08-30T10:28:43.565Z,102355.38
2022-08-30T10:31:37.860Z,102346.81
2022-08-30T10:34:17.843Z,102352.28
2022-08-30T10:37:01.835Z,102354.47
2022-08-30T10:39:34.023Z,102340.91
2022-08-30T10:42:15.829Z,102353.53
2022-08-30T10:44:49.703Z,102341.59
2022-08-30T10:47:50.352Z,102344.97
2022-08-30T10:50:21.562Z,102350.16
2022-08-30T10:53:15.951Z,102345.91
2022-08-30T10:55:58.558Z,102347.06
2022-08-30T10:58:31.846Z,102343.00
2022-08-30T11:01:46.667Z,102343.88
2022-08-30T11:05:03.873Z,102339.28
2022-08-30T11:07:40.696Z,102335.09
2022-08-30T11:10:37.887Z,102344.91
2022-08-30T11:13:10.553Z,102333.25
2022-08-30T11:16:01.840Z,102338.09
2022-08-30T11:18:41.517Z,102330.84
2022-08-30T11:21:25.888Z,102329.94
2022-08-30T11:24:11.407Z,102338.63
2022-08-30T11:26:51.863Z,102323.50
2022-08-30T11:29:44.395Z,102329.38
2022-08-30T11:32:21.853Z,102330.59
2022-08-30T11:34:48.169Z,102325.41
2022-08-30T11:37:50.635Z,102329.63
2022-08-30T11:40:19.901Z,102331.16
2022-08-30T11:42:59.844Z,102330.19
2022-08-30T11:45:28.485Z,102320.75
2022-08-30T11:48:07.837Z,102319.34
2022-08-30T11:51:05.116Z,102322.25
2022-08-30T11:53:56.977Z,102320.41
2022-08-30T11:56:39.863Z,102309.88
2022-08-30T11:59:10.466Z,102311.84
2022-08-30T12:01:51.997Z,102312.88
2022-08-30T12:04:20.900Z,102300.44
2022-08-30T12:07:05.831Z,102310.38
2022-08-30T12:09:35.206Z,102302.53
2022-08-30T12:16:03.930Z,102303.94
2022-08-30T12:18:49.851Z,102306.78
2022-08-30T12:21:22.460Z,102290.22
2022-08-30T12:24:22.829Z,102290.22
2022-08-30T12:26:52.297Z,102297.38
2022-08-30T12:29:29.862Z,102294.75
2022-08-30T12:32:09.497Z,102295.31
2022-08-30T12:34:57.869Z,102288.31
2022-08-30T12:37:32.105Z,102285.00
2022-08-30T12:40:12.258Z,102293.69
2022-08-30T12:42:55.838Z,102284.38
2022-08-30T12:45:33.855Z,102275.78
2022-08-30T12:48:25.845Z,102277.56
2022-08-30T12:50:56.027Z,102276.63
2022-08-30T12:53:36.030Z,102286.34
2022-08-30T12:56:04.859Z,102282.28
2022-08-30T12:58:53.901Z,102282.75
2022-08-30T13:01:33.322Z,102283.69
2022-08-30T13:04:19.860Z,102281.13
2022-08-30T13:07:13.883Z,102274.63
2022-08-30T13:09:44.060Z,102267.53
2022-08-30T13:12:32.839Z,102262.16
2022-08-30T13:15:16.479Z,102270.22
2022-08-30T13:17:49.833Z,102262.63
2022-08-30T13:20:16.269Z,102263.53
2022-08-30T13:23:08.891Z,102260.72
2022-08-30T13:25:44.807Z,102257.78
2022-08-30T13:28:17.920Z,102262.56
2022-08-30T13:30:50.829Z,102258.47
2022-08-30T13:33:17.367Z,102260.31
2022-08-30T13:35:51.832Z,102253.72
2022-08-30T13:38:24.804Z,102262.03
2022-08-30T13:40:57.873Z,102253.56
2022-08-30T13:43:24.671Z,102250.19
2022-08-30T13:45:57.841Z,102252.00
2022-08-30T13:48:25.667Z,102244.97
2022-08-30T13:50:53.345Z,102237.38
2022-08-30T13:56:14.031Z,102239.44
2022-08-30T13:58:46.903Z,102245.38
2022-08-30T14:01:13.839Z,102251.78
2022-08-30T14:09:41.836Z,102239.94
2022-08-30T14:12:08.755Z,102237.75
2022-08-30T14:14:43.060Z,102242.09
2022-08-30T14:17:11.193Z,102245.56
2022-08-30T14:19:45.833Z,102235.81
2022-08-30T14:22:18.856Z,102240.63
2022-08-30T14:24:45.274Z,102234.91
2022-08-30T14:27:17.824Z,102244.94
2022-08-30T14:29:44.299Z,102240.66
2022-08-30T14:32:17.842Z,102238.94
2022-08-30T14:34:44.750Z,102235.63
2022-08-30T14:37:18.811Z,102234.25
2022-08-30T14:39:53.829Z,102232.38
2022-08-30T14:42:20.207Z,102232.44
2022-08-30T14:44:56.285Z,102224.91
2022-08-30T14:47:30.057Z,102234.91
2022-08-30T14:50:00.645Z,102238.44
2022-08-30T14:52:37.824Z,102234.94
2022-08-30T14:55:08.462Z,102222.91
2022-08-30T14:57:41.803Z,102231.31
2022-08-30T15:00:11.176Z,102239.75
2022-08-30T15:02:43.815Z,102229.72
2022-08-30T15:05:10.282Z,102232.25
2022-08-30T15:07:43.817Z,102229.72
2022-08-30T15:10:19.994Z,102230.78
2022-08-30T15:12:57.828Z,102233.44
2022-08-30T15:15:30.802Z,102221.72
2022-08-30T15:18:03.822Z,102219.16
2022-08-30T15:20:30.568Z,102214.22
2022-08-30T15:23:03.813Z,102223.66
2022-08-30T15:25:31.543Z,102215.91
2022-08-30T15:28:04.818Z,102223.75
2022-08-30T15:30:37.818Z,102217.75
2022-08-30T15:33:04.229Z,102214.44
2022-08-30T15:35:36.809Z,102214.69
2022-08-30T15:38:03.378Z,102195.09
2022-08-30T15:40:39.903Z,102214.91
2022-08-30T15:43:06.489Z,102196.22
2022-08-30T15:45:33.249Z,102191.75
2022-08-30T15:48:07.806Z,102194.63
2022-08-30T15:50:35.757Z,102180.94
2022-08-30T15:53:09.864Z,102193.34
2022-08-30T15:55:36.317Z,102189.47
2022-08-30T15:58:09.810Z,102187.50
2022-08-30T16:00:37.281Z,102193.13
2022-08-30T16:03:11.849Z,102193.72
2022-08-30T16:05:38.223Z,102197.38
2022-08-30T16:08:04.599Z,102187.13
2022-08-30T16:10:37.825Z,102184.97
2022-08-30T16:13:15.929Z,102189.44
2022-08-30T16:15:44.275Z,102191.97
2022-08-30T16:18:19.892Z,102185.78
2022-08-30T16:20:52.804Z,102186.56
2022-08-30T16:23:19.361Z,102178.28
2022-08-30T16:25:51.807Z,102175.53
2022-08-30T16:28:24.790Z,102176.66
2022-08-30T16:30:51.174Z,102175.56
2022-08-30T16:33:31.801Z,102179.00
2022-08-30T16:35:58.981Z,102178.00
2022-08-30T16:38:32.822Z,102176.03
2022-08-30T16:41:05.807Z,102182.22
2022-08-30T16:43:39.822Z,102175.44
2022-08-30T16:46:10.366Z,102174.03
2022-08-30T16:48:45.826Z,102175.44
2022-08-30T16:51:17.018Z,102169.84
2022-08-30T16:53:44.098Z,102175.69
2022-08-30T16:56:23.823Z,102169.81
2022-08-30T16:59:02.656Z,102174.44
2022-08-30T17:01:31.993Z,102176.72
2022-08-30T17:04:05.825Z,102173.09
2022-08-30T17:06:32.490Z,102167.53
2022-08-30T17:09:15.055Z,102171.19
2022-08-30T17:11:41.871Z,102176.34
2022-08-30T17:14:17.831Z,102175.63
2022-08-30T17:16:55.812Z,102173.88
2022-08-30T17:22:16.816Z,102165.25
2022-08-30T17:24:43.171Z,102165.25
2022-08-30T17:27:17.817Z,102169.81
2022-08-30T17:29:45.518Z,102166.59
2022-08-30T17:32:11.915Z,102173.34
2022-08-30T17:34:45.809Z,102173.97
2022-08-30T17:37:13.025Z,102176.69
2022-08-30T17:39:39.475Z,102171.25
2022-08-30T17:42:13.811Z,102180.19
2022-08-30T17:44:42.089Z,102181.66
2022-08-30T17:47:15.813Z,102194.47
2022-08-30T17:49:42.227Z,102187.84
2022-08-30T17:52:15.801Z,102188.28
2022-08-30T17:54:43.022Z,102185.47
2022-08-30T17:57:17.799Z,102191.59
2022-08-30T17:59:45.492Z,102187.41
2022-08-30T18:02:22.742Z,102199.00
2022-08-30T18:04:57.777Z,102198.81
2022-08-30T18:07:38.858Z,102205.38
2022-08-30T18:10:13.413Z,102198.09
2022-08-30T18:12:47.795Z,102199.53
2022-08-30T18:15:16.034Z,102205.22
2022-08-30T18:17:50.803Z,102210.94
2022-08-30T18:20:18.287Z,102212.00
2022-08-30T18:22:44.789Z,102215.84
2022-08-30T18:25:17.792Z,102226.06
2022-08-30T18:30:41.355Z,102232.19
2022-08-30T18:33:08.716Z,102232.63
2022-08-30T18:35:45.339Z,102237.72
2022-08-30T18:38:14.088Z,102238.34
2022-08-30T18:40:41.281Z,102235.28
2022-08-30T18:43:17.794Z,102234.91
2022-08-30T18:45:57.815Z,102243.84
2022-08-30T18:48:25.255Z,102234.13
2022-08-30T18:50:53.770Z,102239.00
2022-08-30T18:53:28.634Z,102235.34
2022-08-30T18:56:03.840Z,102241.84
2022-08-30T18:58:30.378Z,102244.47
2022-08-30T19:01:02.800Z,102251.38
2022-08-30T19:03:32.971Z,102253.81
2022-08-30T19:06:14.794Z,102251.56
2022-08-30T19:08:49.127Z,102248.91
2022-08-30T19:11:21.774Z,102261.28
2022-08-30T19:13:49.667Z,102249.31
2022-08-30T19:16:25.858Z,102255.81
2022-08-30T19:18:52.274Z,102254.19
2022-08-30T19:21:19.982Z,102264.50
2022-08-30T19:23:55.196Z,102256.19
2022-08-30T19:26:29.786Z,102264.09
2022-08-30T19:29:03.794Z,102263.66
2022-08-30T19:31:30.206Z,102265.28
2022-08-30T19:33:58.267Z,102262.03
2022-08-30T19:36:30.795Z,102264.66
2022-08-30T19:39:03.813Z,102262.84
2022-08-30T19:41:30.200Z,102271.31
2022-08-30T19:43:57.300Z,102275.38
2022-08-30T19:46:33.781Z,102271.31
2022-08-30T19:49:11.786Z,102274.34
2022-08-30T19:51:47.002Z,102270.06
2022-08-30T19:54:13.995Z,102280.19
2022-08-30T19:56:48.108Z,102282.22
2022-08-30T19:59:16.451Z,102274.09
2022-08-30T20:01:49.825Z,102272.66
2022-08-30T20:04:16.895Z,102274.47
2022-08-30T20:06:45.287Z,102274.47
2022-08-30T20:09:19.780Z,102283.09
2022-08-30T20:11:55.201Z,102274.94
2022-08-30T20:14:25.501Z,102283.41
2022-08-30T20:16:59.790Z,102287.22
2022-08-30T20:19:29.276Z,102286.81
2022-08-30T20:22:07.783Z,102281.75
2022-08-30T20:24:23.646Z,102168.88
2022-08-30T20:24:27.037Z,102217.53
2022-08-30T20:27:09.782Z,102285.38
2022-08-30T20:29:37.760Z,102286.41
2022-08-30T20:32:04.701Z,102289.22
2022-08-30T20:34:37.770Z,102287.78
2022-08-30T20:37:10.814Z,102291.16
2022-08-30T20:39:44.770Z,102292.38
2022-08-30T20:42:12.972Z,102298.25
2022-08-30T20:44:45.784Z,102299.50
2022-08-30T20:47:12.395Z,102303.13
2022-08-30T20:49:44.798Z,102300.47
2022-08-30T20:52:11.210Z,102307.47
2022-08-30T20:54:43.780Z,102304.03
2022-08-30T20:57:10.327Z,102316.56
2022-08-30T20:59:45.788Z,102308.88
2022-08-30T21:02:27.830Z,102310.84
2022-08-30T21:05:09.785Z,102305.56
2022-08-30T21:07:43.776Z,102307.97
2022-08-30T21:10:22.621Z,102307.31
2022-08-30T21:12:49.691Z,102307.31
2022-08-30T21:15:36.430Z,102312.34
2022-08-30T21:18:09.823Z,102310.72
2022-08-30T21:20:36.260Z,102315.34
2022-08-30T21:23:09.804Z,102315.47
2022-08-30T21:25:49.788Z,102310.84
2022-08-30T21:28:22.814Z,102320.34
2022-08-30T21:30:55.823Z,102318.72
2022-08-30T21:33:22.252Z,102323.34
2022-08-30T21:36:13.803Z,102327.28
2022-08-30T21:38:40.189Z,102324.66
2022-08-30T21:41:06.781Z,102327.19
2022-08-30T21:43:39.806Z,102337.69
2022-08-30T21:46:13.823Z,102329.81
2022-08-30T21:48:40.223Z,102340.25
2022-08-30T21:51:14.803Z,102328.97
2022-08-30T21:53:47.806Z,102343.88
2022-08-30T21:56:21.869Z,102341.47
2022-08-30T21:58:55.788Z,102344.66
2022-08-30T22:01:35.863Z,102345.41
2022-08-30T22:04:07.634Z,102353.00
2022-08-30T22:06:43.763Z,102353.38
2022-08-30T22:09:13.842Z,102342.25
2022-08-30T22:11:50.020Z,102353.13
2022-08-30T22:14:18.887Z,102355.22
2022-08-30T22:16:51.844Z,102350.06
2022-08-30T22:19:23.103Z,102348.06
2022-08-30T22:22:01.354Z,102347.25
2022-08-30T22:24:35.817Z,102352.22
2022-08-30T22:27:03.788Z,102349.34
2022-08-30T22:29:36.791Z,102352.22
2022-08-30T22:32:03.738Z,102357.38
2022-08-30T22:34:31.952Z,102348.53
2022-08-30T22:37:05.770Z,102353.88
2022-08-30T22:39:32.264Z,102351.25
2022-08-30T22:42:05.777Z,102354.59
2022-08-30T22:44:32.371Z,102364.19
2022-08-30T22:47:06.857Z,102357.31
2022-08-30T22:49:33.321Z,102354.50
2022-08-30T22:52:05.772Z,102357.66
2022-08-30T22:54:33.117Z,102363.75
2022-08-30T22:57:05.781Z,102357.44
2022-08-30T22:59:32.716Z,102356.91
2022-08-30T23:01:59.481Z,102364.75
2022-08-30T23:04:33.747Z,102362.84
2022-08-30T23:09:35.813Z,102357.03
2022-08-30T23:12:02.423Z,102364.06
2022-08-30T23:14:35.785Z,102359.34
2022-08-30T23:17:09.763Z,102363.91
2022-08-30T23:19:42.789Z,102361.00
2022-08-30T23:22:09.269Z,102359.25
2022-08-30T23:25:00.792Z,102364.72
2022-08-30T23:27:51.776Z,102366.38
2022-08-30T23:30:43.776Z,102360.47
2022-08-30T23:33:29.089Z,102364.16
2022-08-30T23:36:21.787Z,102361.72
2022-08-30T23:39:06.654Z,102356.19
2022-08-30T23:41:57.746Z,102360.09
2022-08-30T23:44:42.772Z,102365.50
2022-08-30T23:47:33.860Z,102351.16
2022-08-30T23:50:25.774Z,102365.91
2022-08-30T23:53:10.595Z,102363.16
2022-08-30T23:56:04.750Z,102367.25
2022-08-30T23:58:49.595Z,102366.75
